Sidney Richland Municipal Airport
KSDY : now visible

Airfield :











YOU CAN JOIN US ON...

 
LOGIN :

Register | Disclaimer

   EN    FR    IT 

 









Legend :    VFR   Marginal VFR   IFR   Intensive IFR   Very Intensive IFR
Visi :
Ceiling :
>= 8 km
>= 3000ft
5 to 8 km
1000 to 3000 ft
1500m to 5 km
500 to 1000 ft
800 to 1500m
200 to 500 ft
< 800m
< 200 ft
Symbols :   Thunderstorms  Fog  Heavy snow  Heavy precipitations  Wind > 20 kt






- Airport Elevation : 1985 ft


KSDY - Sidney Richland Municipal

CURRENT METAR :
  • 292356Z AUTO 32016KT 10SM FEW070 26/11 A2974 RMK AO2 LTG DSNT E-S PRESRR SLP068 T02610111 10294 20256 55008

EXPIRED METARs :
  • 292256Z AUTO 28011KT 10SM BKN080 28/13 A2973 RMK AO2 SLP062 T02830128
  • 292156Z AUTO 22009KT 190V260 10SM BKN065 28/13 A2975 RMK AO2 SLP070 T02780128
  • 292056Z AUTO 17009KT 10SM FEW065 29/13 A2977 RMK AO2 SLP074 T02940133 56017
  • 291956Z AUTO 17010G21KT 10SM CLR 28/13 A2978 RMK AO2 SLP079 T02780128
  • 291856Z AUTO 19018G22KT 10SM CLR 27/12 A2980 RMK AO2 SLP085 T02720122

TAF KSDY
Valid from the 30 at 00:00 until the 31 at 00:00 UTC


292333Z 3000/3024 VRB08G19KT P6SM -SHRA SCT045 BKN090
TEMPO 3000/3004 4SM TSRAGR OVC040CB
FM300400 27014G22KT P6SM -SHRA BKN050 OVC080
TEMPO 3004/3008 6SM -TSRAGS OVC045CB
FM301000 28014G25KT P6SM OVC060
PROB30 3010/3014 6SM -SHRA OVC040
FM301800 26018G28KT P6SM SCT050 BKN090
KZLC FIR / North America



MET'MAP, your aeronautical weather chart ! - Copyright ORBIFLY December 2007 - Disclaimer

ORBIFLY MET'MAP TEAM :

Programming & Development : Alexandra Zaïnal
Original concept : Baudouin d'Aumeries
Technical & hardware support : Manuel Goepfert
Assistance : Marc-Olivier Méhu




SOURCES & CREDITS :

   NOAA       Earth
Advisory